sensor_id;sensor_type;location;lat;lon;timestamp;pressure;altitude;pressure_sealevel;temperature;humidity
31346;BME280;21711;49.708;18.568;2023-03-19T00:00:38;97414.88;;;7.48;52.50
31346;BME280;21711;49.708;18.568;2023-03-19T00:03:05;97417.94;;;7.12;53.50
31346;BME280;21711;49.708;18.568;2023-03-19T00:05:32;97411.69;;;6.74;55.53
31346;BME280;21711;49.708;18.568;2023-03-19T00:08:00;97399.72;;;6.83;54.08
31346;BME280;21711;49.708;18.568;2023-03-19T00:10:27;97397.66;;;6.85;53.64
31346;BME280;21711;49.708;18.568;2023-03-19T00:12:54;97401.00;;;6.80;55.43
31346;BME280;21711;49.708;18.568;2023-03-19T00:15:21;97388.34;;;6.55;55.72
31346;BME280;21711;49.708;18.568;2023-03-19T00:17:48;97402.16;;;6.45;56.61
31346;BME280;21711;49.708;18.568;2023-03-19T00:20:15;97389.28;;;6.66;56.24
31346;BME280;21711;49.708;18.568;2023-03-19T00:22:44;97396.75;;;6.74;56.46
31346;BME280;21711;49.708;18.568;2023-03-19T00:25:11;97405.13;;;6.31;57.25
31346;BME280;21711;49.708;18.568;2023-03-19T00:27:38;97392.69;;;6.27;58.29
31346;BME280;21711;49.708;18.568;2023-03-19T00:30:06;97394.31;;;6.28;58.53
31346;BME280;21711;49.708;18.568;2023-03-19T00:32:34;97397.69;;;6.28;58.84
31346;BME280;21711;49.708;18.568;2023-03-19T00:35:03;97390.00;;;6.04;58.76
31346;BME280;21711;49.708;18.568;2023-03-19T00:37:35;97394.44;;;5.87;60.61
31346;BME280;21711;49.708;18.568;2023-03-19T00:40:03;97388.09;;;5.83;59.15
31346;BME280;21711;49.708;18.568;2023-03-19T00:42:33;97390.63;;;5.95;59.08
31346;BME280;21711;49.708;18.568;2023-03-19T00:45:00;97384.28;;;6.08;59.02
31346;BME280;21711;49.708;18.568;2023-03-19T00:47:27;97391.75;;;5.99;59.34
31346;BME280;21711;49.708;18.568;2023-03-19T00:49:55;97398.16;;;5.91;59.06
31346;BME280;21711;49.708;18.568;2023-03-19T00:52:22;97398.41;;;5.72;60.43
31346;BME280;21711;49.708;18.568;2023-03-19T00:54:49;97395.66;;;5.50;61.03
31346;BME280;21711;49.708;18.568;2023-03-19T00:57:17;97393.72;;;5.57;61.27
31346;BME280;21711;49.708;18.568;2023-03-19T00:59:45;97385.69;;;5.64;63.02
31346;BME280;21711;49.708;18.568;2023-03-19T01:02:12;97381.84;;;5.55;61.63
31346;BME280;21711;49.708;18.568;2023-03-19T01:04:39;97389.50;;;5.56;61.84
31346;BME280;21711;49.708;18.568;2023-03-19T01:07:07;97384.09;;;5.80;62.46
31346;BME280;21711;49.708;18.568;2023-03-19T01:09:34;97380.69;;;6.53;60.50
31346;BME280;21711;49.708;18.568;2023-03-19T01:12:01;97378.75;;;7.10;58.17
31346;BME280;21711;49.708;18.568;2023-03-19T01:14:31;97383.78;;;7.40;57.31
31346;BME280;21711;49.708;18.568;2023-03-19T01:16:59;97377.84;;;7.55;56.86
31346;BME280;21711;49.708;18.568;2023-03-19T01:19:26;97377.19;;;7.70;56.52
31346;BME280;21711;49.708;18.568;2023-03-19T01:21:54;97385.72;;;7.82;56.35
31346;BME280;21711;49.708;18.568;2023-03-19T01:24:22;97383.59;;;7.46;58.33
31346;BME280;21711;49.708;18.568;2023-03-19T01:26:53;97379.28;;;7.13;58.99
31346;BME280;21711;49.708;18.568;2023-03-19T01:29:27;97372.34;;;7.56;57.81
31346;BME280;21711;49.708;18.568;2023-03-19T01:31:56;97381.16;;;7.40;58.21
31346;BME280;21711;49.708;18.568;2023-03-19T01:34:41;97384.31;;;7.14;60.17
31346;BME280;21711;49.708;18.568;2023-03-19T01:37:10;97384.59;;;6.68;61.66
31346;BME280;21711;49.708;18.568;2023-03-19T01:39:39;97378.94;;;6.59;61.39
31346;BME280;21711;49.708;18.568;2023-03-19T01:42:10;97376.53;;;6.57;61.52
31346;BME280;21711;49.708;18.568;2023-03-19T01:45:00;97387.09;;;6.40;63.05
31346;BME280;21711;49.708;18.568;2023-03-19T01:47:39;97378.22;;;6.07;63.25
31346;BME280;21711;49.708;18.568;2023-03-19T01:50:28;97372.81;;;5.97;63.73
31346;BME280;21711;49.708;18.568;2023-03-19T01:53:36;97370.56;;;5.71;64.72
31346;BME280;21711;49.708;18.568;2023-03-19T01:56:14;97367.69;;;5.56;65.56
31346;BME280;21711;49.708;18.568;2023-03-19T01:58:56;97370.47;;;5.49;66.92
31346;BME280;21711;49.708;18.568;2023-03-19T02:01:46;97374.75;;;5.55;66.05
31346;BME280;21711;49.708;18.568;2023-03-19T02:04:17;97368.31;;;5.63;66.74
31346;BME280;21711;49.708;18.568;2023-03-19T02:06:44;97372.88;;;5.68;65.77
31346;BME280;21711;49.708;18.568;2023-03-19T02:09:13;97374.22;;;5.70;66.07
31346;BME280;21711;49.708;18.568;2023-03-19T02:11:41;97374.38;;;5.46;66.48
31346;BME280;21711;49.708;18.568;2023-03-19T02:14:08;97374.97;;;5.36;67.32
31346;BME280;21711;49.708;18.568;2023-03-19T02:16:36;97374.34;;;5.29;66.76
31346;BME280;21711;49.708;18.568;2023-03-19T02:19:05;97378.09;;;5.33;67.81
31346;BME280;21711;49.708;18.568;2023-03-19T02:21:35;97375.47;;;5.04;67.79
31346;BME280;21711;49.708;18.568;2023-03-19T02:24:18;97378.13;;;5.21;68.36
31346;BME280;21711;49.708;18.568;2023-03-19T02:27:02;97392.59;;;5.24;68.50
31346;BME280;21711;49.708;18.568;2023-03-19T02:29:30;97396.41;;;5.16;68.18
31346;BME280;21711;49.708;18.568;2023-03-19T02:31:59;97390.56;;;5.14;68.96
31346;BME280;21711;49.708;18.568;2023-03-19T02:36:58;97393.94;;;4.97;69.67
31346;BME280;21711;49.708;18.568;2023-03-19T02:40:17;97406.06;;;5.16;69.85
31346;BME280;21711;49.708;18.568;2023-03-19T02:42:19;97413.44;;;5.31;70.10
31346;BME280;21711;49.708;18.568;2023-03-19T02:44:47;97409.16;;;5.12;70.91
31346;BME280;21711;49.708;18.568;2023-03-19T02:47:14;97401.16;;;5.19;69.94
31346;BME280;21711;49.708;18.568;2023-03-19T02:49:42;97410.16;;;5.23;69.79
31346;BME280;21711;49.708;18.568;2023-03-19T02:52:09;97410.22;;;4.99;70.13
31346;BME280;21711;49.708;18.568;2023-03-19T02:54:36;97410.31;;;5.05;71.05
31346;BME280;21711;49.708;18.568;2023-03-19T02:57:03;97420.13;;;5.09;71.33
31346;BME280;21711;49.708;18.568;2023-03-19T02:59:31;97425.13;;;5.11;71.50
31346;BME280;21711;49.708;18.568;2023-03-19T03:01:59;97423.53;;;5.10;71.37
31346;BME280;21711;49.708;18.568;2023-03-19T03:04:26;97419.03;;;4.93;71.09
31346;BME280;21711;49.708;18.568;2023-03-19T03:06:55;97419.56;;;4.95;70.82
31346;BME280;21711;49.708;18.568;2023-03-19T03:09:22;97422.53;;;5.11;70.66
31346;BME280;21711;49.708;18.568;2023-03-19T03:11:49;97418.59;;;5.25;71.04
31346;BME280;21711;49.708;18.568;2023-03-19T03:14:16;97415.34;;;5.06;71.88
31346;BME280;21711;49.708;18.568;2023-03-19T03:16:44;97415.75;;;5.15;71.25
31346;BME280;21711;49.708;18.568;2023-03-19T03:19:12;97418.31;;;4.98;71.06
31346;BME280;21711;49.708;18.568;2023-03-19T03:21:40;97416.41;;;4.93;70.70
31346;BME280;21711;49.708;18.568;2023-03-19T03:24:07;97418.00;;;4.82;72.04
31346;BME280;21711;49.708;18.568;2023-03-19T03:26:35;97411.09;;;4.64;72.11
31346;BME280;21711;49.708;18.568;2023-03-19T03:29:05;97408.72;;;4.63;72.43
31346;BME280;21711;49.708;18.568;2023-03-19T03:31:33;97405.28;;;4.62;72.34
31346;BME280;21711;49.708;18.568;2023-03-19T03:34:01;97404.13;;;4.70;73.48
31346;BME280;21711;49.708;18.568;2023-03-19T03:36:28;97402.16;;;4.89;72.74
31346;BME280;21711;49.708;18.568;2023-03-19T03:38:55;97397.50;;;4.79;72.48
31346;BME280;21711;49.708;18.568;2023-03-19T03:41:23;97400.72;;;4.81;73.22
31346;BME280;21711;49.708;18.568;2023-03-19T03:43:50;97400.06;;;4.50;73.38
31346;BME280;21711;49.708;18.568;2023-03-19T03:46:18;97401.53;;;4.58;73.23
31346;BME280;21711;49.708;18.568;2023-03-19T03:48:48;97409.97;;;4.60;73.92
31346;BME280;21711;49.708;18.568;2023-03-19T03:51:18;97409.16;;;4.59;74.65
31346;BME280;21711;49.708;18.568;2023-03-19T03:53:45;97408.75;;;5.04;73.89
31346;BME280;21711;49.708;18.568;2023-03-19T03:56:13;97407.22;;;5.20;73.02
31346;BME280;21711;49.708;18.568;2023-03-19T03:58:40;97410.63;;;5.49;71.53
31346;BME280;21711;49.708;18.568;2023-03-19T04:01:12;97411.56;;;5.60;70.79
31346;BME280;21711;49.708;18.568;2023-03-19T04:03:41;97409.22;;;5.59;71.23
31346;BME280;21711;49.708;18.568;2023-03-19T04:06:12;97412.81;;;5.40;70.48
31346;BME280;21711;49.708;18.568;2023-03-19T04:08:40;97404.81;;;5.18;71.55
31346;BME280;21711;49.708;18.568;2023-03-19T04:11:08;97410.88;;;5.19;72.25
31346;BME280;21711;49.708;18.568;2023-03-19T04:13:35;97410.78;;;5.13;72.45
31346;BME280;21711;49.708;18.568;2023-03-19T04:16:05;97404.69;;;5.25;72.40
31346;BME280;21711;49.708;18.568;2023-03-19T04:18:34;97405.34;;;5.32;71.77
31346;BME280;21711;49.708;18.568;2023-03-19T04:21:03;97407.97;;;5.32;71.53
31346;BME280;21711;49.708;18.568;2023-03-19T04:23:30;97404.06;;;5.35;71.53
31346;BME280;21711;49.708;18.568;2023-03-19T04:25:59;97406.13;;;5.33;71.71
31346;BME280;21711;49.708;18.568;2023-03-19T04:28:28;97404.66;;;5.54;70.96
31346;BME280;21711;49.708;18.568;2023-03-19T04:31:03;97397.22;;;5.34;71.91
31346;BME280;21711;49.708;18.568;2023-03-19T04:33:33;97395.03;;;5.43;71.93
31346;BME280;21711;49.708;18.568;2023-03-19T04:36:00;97398.38;;;5.55;71.17
31346;BME280;21711;49.708;18.568;2023-03-19T04:38:27;97399.03;;;5.62;71.22
31346;BME280;21711;49.708;18.568;2023-03-19T04:40:55;97410.34;;;5.80;69.91
31346;BME280;21711;49.708;18.568;2023-03-19T04:43:23;97412.78;;;5.87;69.95
31346;BME280;21711;49.708;18.568;2023-03-19T04:45:51;97408.19;;;5.77;69.36
31346;BME280;21711;49.708;18.568;2023-03-19T04:48:20;97405.19;;;5.85;69.66
31346;BME280;21711;49.708;18.568;2023-03-19T04:50:50;97403.94;;;6.05;69.23
31346;BME280;21711;49.708;18.568;2023-03-19T04:53:19;97399.66;;;5.87;68.86
31346;BME280;21711;49.708;18.568;2023-03-19T04:55:47;97400.47;;;5.87;69.47
31346;BME280;21711;49.708;18.568;2023-03-19T04:58:19;97399.31;;;6.12;68.44
31346;BME280;21711;49.708;18.568;2023-03-19T05:00:54;97403.03;;;6.34;67.47
31346;BME280;21711;49.708;18.568;2023-03-19T05:03:30;97400.66;;;6.32;67.23
31346;BME280;21711;49.708;18.568;2023-03-19T05:05:58;97393.81;;;6.14;67.55
31346;BME280;21711;49.708;18.568;2023-03-19T05:08:25;97399.88;;;6.14;67.60
31346;BME280;21711;49.708;18.568;2023-03-19T05:10:52;97406.94;;;6.31;67.70
31346;BME280;21711;49.708;18.568;2023-03-19T05:13:20;97409.56;;;6.31;67.97
31346;BME280;21711;49.708;18.568;2023-03-19T05:15:51;97409.00;;;6.46;66.54
31346;BME280;21711;49.708;18.568;2023-03-19T05:18:20;97405.19;;;6.37;67.40
31346;BME280;21711;49.708;18.568;2023-03-19T05:20:48;97403.97;;;6.44;67.04
31346;BME280;21711;49.708;18.568;2023-03-19T05:23:21;97413.50;;;6.51;65.97
31346;BME280;21711;49.708;18.568;2023-03-19T05:26:05;97420.16;;;6.76;66.30
31346;BME280;21711;49.708;18.568;2023-03-19T05:28:55;97417.28;;;6.77;65.69
31346;BME280;21711;49.708;18.568;2023-03-19T05:31:32;97418.13;;;7.05;64.83
31346;BME280;21711;49.708;18.568;2023-03-19T05:34:00;97419.09;;;7.21;63.44
31346;BME280;21711;49.708;18.568;2023-03-19T05:36:29;97414.50;;;7.34;62.50
31346;BME280;21711;49.708;18.568;2023-03-19T05:39:08;97418.66;;;7.57;62.06
31346;BME280;21711;49.708;18.568;2023-03-19T05:41:37;97424.88;;;7.46;61.91
31346;BME280;21711;49.708;18.568;2023-03-19T05:44:05;97420.13;;;7.70;61.73
31346;BME280;21711;49.708;18.568;2023-03-19T05:46:43;97420.34;;;8.01;60.17
31346;BME280;21711;49.708;18.568;2023-03-19T05:49:11;97424.31;;;8.85;58.21
31346;BME280;21711;49.708;18.568;2023-03-19T05:51:38;97424.94;;;9.08;56.77
31346;BME280;21711;49.708;18.568;2023-03-19T05:54:07;97435.91;;;9.58;54.78
31346;BME280;21711;49.708;18.568;2023-03-19T05:57:12;97443.84;;;10.57;51.61
31346;BME280;21711;49.708;18.568;2023-03-19T05:59:47;97446.00;;;11.21;49.85
31346;BME280;21711;49.708;18.568;2023-03-19T06:02:23;97445.44;;;11.80;47.18
31346;BME280;21711;49.708;18.568;2023-03-19T06:05:01;97441.84;;;12.59;45.20
31346;BME280;21711;49.708;18.568;2023-03-19T06:07:29;97443.03;;;13.21;43.12
31346;BME280;21711;49.708;18.568;2023-03-19T06:09:58;97445.19;;;13.96;41.67
31346;BME280;21711;49.708;18.568;2023-03-19T06:12:25;97449.00;;;14.56;39.52
31346;BME280;21711;49.708;18.568;2023-03-19T06:14:53;97455.31;;;15.31;38.40
31346;BME280;21711;49.708;18.568;2023-03-19T06:17:40;97444.47;;;15.13;37.92
31346;BME280;21711;49.708;18.568;2023-03-19T06:20:09;97451.59;;;15.04;38.82
31346;BME280;21711;49.708;18.568;2023-03-19T06:22:37;97453.34;;;15.22;38.16
31346;BME280;21711;49.708;18.568;2023-03-19T06:25:05;97452.34;;;15.32;38.15
31346;BME280;21711;49.708;18.568;2023-03-19T06:27:35;97453.38;;;15.59;36.72
31346;BME280;21711;49.708;18.568;2023-03-19T06:30:18;97454.59;;;15.76;37.29
31346;BME280;21711;49.708;18.568;2023-03-19T06:32:45;97456.88;;;16.28;35.90
31346;BME280;21711;49.708;18.568;2023-03-19T06:35:13;97453.22;;;16.88;35.40
31346;BME280;21711;49.708;18.568;2023-03-19T06:37:43;97463.75;;;17.60;32.91
31346;BME280;21711;49.708;18.568;2023-03-19T06:40:10;97462.88;;;17.15;33.56
31346;BME280;21711;49.708;18.568;2023-03-19T06:42:37;97456.94;;;17.09;34.05
31346;BME280;21711;49.708;18.568;2023-03-19T06:45:05;97450.03;;;17.26;34.80
31346;BME280;21711;49.708;18.568;2023-03-19T06:47:33;97452.59;;;17.75;34.12
31346;BME280;21711;49.708;18.568;2023-03-19T06:50:00;97453.50;;;17.35;32.72
31346;BME280;21711;49.708;18.568;2023-03-19T06:52:27;97442.22;;;18.09;33.92
31346;BME280;21711;49.708;18.568;2023-03-19T06:54:54;97454.06;;;18.56;32.37
31346;BME280;21711;49.708;18.568;2023-03-19T06:57:22;97453.06;;;19.09;31.60
31346;BME280;21711;49.708;18.568;2023-03-19T06:59:49;97462.25;;;19.29;30.26
31346;BME280;21711;49.708;18.568;2023-03-19T07:02:17;97455.25;;;18.02;31.71
31346;BME280;21711;49.708;18.568;2023-03-19T07:04:44;97450.75;;;18.50;31.76
31346;BME280;21711;49.708;18.568;2023-03-19T07:07:11;97447.06;;;18.25;32.23
31346;BME280;21711;49.708;18.568;2023-03-19T07:09:38;97445.09;;;18.43;31.88
31346;BME280;21711;49.708;18.568;2023-03-19T07:12:05;97450.84;;;18.24;31.33
31346;BME280;21711;49.708;18.568;2023-03-19T07:14:33;97452.47;;;19.24;31.60
31346;BME280;21711;49.708;18.568;2023-03-19T07:17:00;97448.00;;;19.07;31.03
31346;BME280;21711;49.708;18.568;2023-03-19T07:19:27;97448.00;;;19.07;30.75
31346;BME280;21711;49.708;18.568;2023-03-19T07:21:54;97453.38;;;19.37;30.43
31346;BME280;21711;49.708;18.568;2023-03-19T07:24:21;97458.97;;;19.87;29.99
31346;BME280;21711;49.708;18.568;2023-03-19T07:26:49;97445.13;;;19.42;29.76
31346;BME280;21711;49.708;18.568;2023-03-19T07:29:16;97453.94;;;19.64;30.34
31346;BME280;21711;49.708;18.568;2023-03-19T07:31:43;97459.44;;;20.23;29.54
31346;BME280;21711;49.708;18.568;2023-03-19T07:34:10;97464.47;;;20.83;28.27
31346;BME280;21711;49.708;18.568;2023-03-19T07:36:37;97464.63;;;21.65;27.65
31346;BME280;21711;49.708;18.568;2023-03-19T07:39:04;97456.81;;;21.48;27.60
31346;BME280;21711;49.708;18.568;2023-03-19T07:41:32;97461.66;;;21.29;27.40
31346;BME280;21711;49.708;18.568;2023-03-19T07:43:59;97462.47;;;23.09;25.70
31346;BME280;21711;49.708;18.568;2023-03-19T07:46:26;97465.56;;;22.91;25.45
31346;BME280;21711;49.708;18.568;2023-03-19T07:48:54;97465.28;;;23.12;25.17
31346;BME280;21711;49.708;18.568;2023-03-19T07:51:21;97461.81;;;22.64;25.48
31346;BME280;21711;49.708;18.568;2023-03-19T07:53:48;97453.22;;;23.42;24.95
31346;BME280;21711;49.708;18.568;2023-03-19T07:56:15;97458.38;;;24.30;24.37
31346;BME280;21711;49.708;18.568;2023-03-19T07:58:44;97453.88;;;23.95;24.58
31346;BME280;21711;49.708;18.568;2023-03-19T08:01:11;97451.44;;;22.33;25.76
31346;BME280;21711;49.708;18.568;2023-03-19T08:03:38;97448.94;;;22.41;26.18
31346;BME280;21711;49.708;18.568;2023-03-19T08:06:05;97452.41;;;24.21;23.20
31346;BME280;21711;49.708;18.568;2023-03-19T08:08:32;97455.00;;;25.07;23.01
31346;BME280;21711;49.708;18.568;2023-03-19T08:11:01;97453.06;;;25.99;21.56
31346;BME280;21711;49.708;18.568;2023-03-19T08:13:28;97457.47;;;26.15;21.64
31346;BME280;21711;49.708;18.568;2023-03-19T08:15:55;97456.38;;;27.14;20.12
31346;BME280;21711;49.708;18.568;2023-03-19T08:18:23;97459.41;;;27.83;19.81
31346;BME280;21711;49.708;18.568;2023-03-19T08:20:50;97452.19;;;26.75;19.75
31346;BME280;21711;49.708;18.568;2023-03-19T08:23:17;97449.75;;;27.96;19.25
31346;BME280;21711;49.708;18.568;2023-03-19T08:25:45;97450.53;;;27.97;18.96
31346;BME280;21711;49.708;18.568;2023-03-19T08:28:12;97452.88;;;28.13;18.80
31346;BME280;21711;49.708;18.568;2023-03-19T08:30:39;97459.16;;;29.08;18.84
31346;BME280;21711;49.708;18.568;2023-03-19T08:33:09;97465.53;;;30.51;17.10
31346;BME280;21711;49.708;18.568;2023-03-19T08:35:37;97453.31;;;30.67;17.75
31346;BME280;21711;49.708;18.568;2023-03-19T08:38:04;97454.13;;;28.48;17.99
31346;BME280;21711;49.708;18.568;2023-03-19T08:40:31;97449.00;;;28.18;18.61
31346;BME280;21711;49.708;18.568;2023-03-19T08:42:58;97455.22;;;29.24;18.18
31346;BME280;21711;49.708;18.568;2023-03-19T08:45:26;97452.97;;;28.60;17.51
31346;BME280;21711;49.708;18.568;2023-03-19T08:47:53;97451.00;;;28.43;18.40
31346;BME280;21711;49.708;18.568;2023-03-19T08:50:20;97440.41;;;24.65;21.62
31346;BME280;21711;49.708;18.568;2023-03-19T08:52:47;97444.84;;;25.00;21.47
31346;BME280;21711;49.708;18.568;2023-03-19T08:55:15;97443.53;;;26.55;20.67
31346;BME280;21711;49.708;18.568;2023-03-19T08:57:43;97453.41;;;27.44;18.54
31346;BME280;21711;49.708;18.568;2023-03-19T09:00:10;97459.00;;;27.70;18.80
31346;BME280;21711;49.708;18.568;2023-03-19T09:02:38;97458.78;;;26.74;19.67
31346;BME280;21711;49.708;18.568;2023-03-19T09:05:06;97461.59;;;26.88;20.12
31346;BME280;21711;49.708;18.568;2023-03-19T09:07:33;97463.44;;;28.40;19.54
31346;BME280;21711;49.708;18.568;2023-03-19T09:10:01;97473.84;;;29.40;19.05
31346;BME280;21711;49.708;18.568;2023-03-19T09:12:28;97473.97;;;30.08;17.78
31346;BME280;21711;49.708;18.568;2023-03-19T09:14:55;97467.88;;;30.99;17.04
31346;BME280;21711;49.708;18.568;2023-03-19T09:17:22;97464.19;;;30.78;16.95
31346;BME280;21711;49.708;18.568;2023-03-19T09:19:49;97464.31;;;29.99;17.88
31346;BME280;21711;49.708;18.568;2023-03-19T09:22:17;97454.22;;;27.45;20.02
31346;BME280;21711;49.708;18.568;2023-03-19T09:24:44;97452.56;;;28.55;18.46
31346;BME280;21711;49.708;18.568;2023-03-19T09:27:12;97448.44;;;30.93;17.17
31346;BME280;21711;49.708;18.568;2023-03-19T09:29:39;97446.84;;;30.95;17.11
31346;BME280;21711;49.708;18.568;2023-03-19T09:32:07;97444.59;;;31.25;16.32
31346;BME280;21711;49.708;18.568;2023-03-19T09:34:34;97449.75;;;31.54;16.55
31346;BME280;21711;49.708;18.568;2023-03-19T09:37:01;97452.94;;;31.49;16.68
31346;BME280;21711;49.708;18.568;2023-03-19T09:39:28;97446.78;;;32.04;15.88
31346;BME280;21711;49.708;18.568;2023-03-19T09:42:04;97452.72;;;30.44;15.97
31346;BME280;21711;49.708;18.568;2023-03-19T09:44:36;97449.44;;;30.64;16.92
31346;BME280;21711;49.708;18.568;2023-03-19T09:47:12;97448.44;;;31.31;15.60
31346;BME280;21711;49.708;18.568;2023-03-19T09:49:46;97451.53;;;32.27;15.42
31346;BME280;21711;49.708;18.568;2023-03-19T09:57:45;97432.06;;;31.31;16.19
31346;BME280;21711;49.708;18.568;2023-03-19T10:00:20;97441.56;;;31.85;15.47
31346;BME280;21711;49.708;18.568;2023-03-19T10:03:14;97445.19;;;33.46;14.49
31346;BME280;21711;49.708;18.568;2023-03-19T10:14:27;97418.69;;;27.90;18.63
31346;BME280;21711;49.708;18.568;2023-03-19T10:17:00;97413.66;;;27.92;18.94
31346;BME280;21711;49.708;18.568;2023-03-19T10:22:54;97408.22;;;27.96;19.04
31346;BME280;21711;49.708;18.568;2023-03-19T10:25:25;97406.91;;;29.53;17.40
31346;BME280;21711;49.708;18.568;2023-03-19T10:28:06;97408.41;;;29.73;17.12
31346;BME280;21711;49.708;18.568;2023-03-19T10:30:37;97412.47;;;29.13;18.74
31346;BME280;21711;49.708;18.568;2023-03-19T10:33:14;97406.75;;;29.83;17.20
31346;BME280;21711;49.708;18.568;2023-03-19T10:35:45;97410.00;;;31.49;16.39
31346;BME280;21711;49.708;18.568;2023-03-19T10:38:22;97410.31;;;30.36;16.99
31346;BME280;21711;49.708;18.568;2023-03-19T10:41:17;97406.41;;;31.21;16.09
31346;BME280;21711;49.708;18.568;2023-03-19T10:43:53;97409.81;;;30.94;15.50
31346;BME280;21711;49.708;18.568;2023-03-19T10:46:22;97400.91;;;30.44;16.11
31346;BME280;21711;49.708;18.568;2023-03-19T10:48:50;97387.19;;;29.13;16.86
31346;BME280;21711;49.708;18.568;2023-03-19T10:51:25;97382.47;;;30.14;16.99
31346;BME280;21711;49.708;18.568;2023-03-19T10:53:53;97388.84;;;30.42;16.65
31346;BME280;21711;49.708;18.568;2023-03-19T10:56:25;97386.56;;;30.33;16.67
31346;BME280;21711;49.708;18.568;2023-03-19T10:58:57;97394.78;;;30.79;16.37
31346;BME280;21711;49.708;18.568;2023-03-19T11:01:35;97380.88;;;31.39;16.24
31346;BME280;21711;49.708;18.568;2023-03-19T11:04:12;97386.16;;;30.84;16.78
31346;BME280;21711;49.708;18.568;2023-03-19T11:06:40;97379.66;;;29.57;16.98
31346;BME280;21711;49.708;18.568;2023-03-19T11:11:42;97376.09;;;29.67;17.39
31346;BME280;21711;49.708;18.568;2023-03-19T11:14:15;97361.13;;;29.98;16.69
31346;BME280;21711;49.708;18.568;2023-03-19T11:19:28;97355.31;;;29.92;16.55
31346;BME280;21711;49.708;18.568;2023-03-19T11:22:00;97352.22;;;30.43;17.09
31346;BME280;21711;49.708;18.568;2023-03-19T11:24:30;97347.91;;;29.18;16.91
31346;BME280;21711;49.708;18.568;2023-03-19T11:26:58;97339.53;;;28.32;17.49
31346;BME280;21711;49.708;18.568;2023-03-19T11:29:26;97343.41;;;28.45;18.94
31346;BME280;21711;49.708;18.568;2023-03-19T11:32:08;97337.19;;;27.94;19.61
31346;BME280;21711;49.708;18.568;2023-03-19T11:35:31;97333.03;;;27.04;19.90
31346;BME280;21711;49.708;18.568;2023-03-19T11:37:57;97322.81;;;27.90;18.95
31346;BME280;21711;49.708;18.568;2023-03-19T11:46:02;97322.78;;;27.68;19.58
31346;BME280;21711;49.708;18.568;2023-03-19T11:48:48;97328.66;;;28.50;18.04
31346;BME280;21711;49.708;18.568;2023-03-19T11:51:27;97317.25;;;29.06;18.25
31346;BME280;21711;49.708;18.568;2023-03-19T12:05:17;97293.91;;;26.34;21.84
31346;BME280;21711;49.708;18.568;2023-03-19T12:13:44;97299.31;;;25.47;20.45
31346;BME280;21711;49.708;18.568;2023-03-19T12:16:33;97301.50;;;26.18;21.63
31346;BME280;21711;49.708;18.568;2023-03-19T12:19:32;97302.28;;;26.18;20.32
31346;BME280;21711;49.708;18.568;2023-03-19T12:32:48;97296.16;;;24.77;21.86
31346;BME280;21711;49.708;18.568;2023-03-19T12:35:33;97292.91;;;24.64;22.59
31346;BME280;21711;49.708;18.568;2023-03-19T12:40:42;97292.19;;;23.07;25.34
31346;BME280;21711;49.708;18.568;2023-03-19T12:46:14;97283.13;;;22.95;25.36
31346;BME280;21711;49.708;18.568;2023-03-19T12:49:02;97277.66;;;22.40;25.44
31346;BME280;21711;49.708;18.568;2023-03-19T12:51:40;97271.81;;;22.18;25.27
31346;BME280;21711;49.708;18.568;2023-03-19T12:54:13;97271.47;;;22.19;26.23
31346;BME280;21711;49.708;18.568;2023-03-19T13:02:02;97261.81;;;22.02;25.30
31346;BME280;21711;49.708;18.568;2023-03-19T13:04:39;97257.06;;;21.96;25.19
31346;BME280;21711;49.708;18.568;2023-03-19T13:07:25;97259.84;;;21.38;25.68
31346;BME280;21711;49.708;18.568;2023-03-19T13:10:17;97261.16;;;21.16;25.69
31346;BME280;21711;49.708;18.568;2023-03-19T13:12:45;97259.00;;;20.93;25.76
31346;BME280;21711;49.708;18.568;2023-03-19T13:23:02;97279.63;;;19.77;30.25
31346;BME280;21711;49.708;18.568;2023-03-19T13:25:40;97277.47;;;19.57;29.33
31346;BME280;21711;49.708;18.568;2023-03-19T13:28:19;97268.97;;;19.55;30.97
31346;BME280;21711;49.708;18.568;2023-03-19T13:31:02;97268.97;;;19.00;31.37
31346;BME280;21711;49.708;18.568;2023-03-19T13:33:32;97266.09;;;18.84;30.88
31346;BME280;21711;49.708;18.568;2023-03-19T13:36:01;97255.44;;;18.97;30.67
31346;BME280;21711;49.708;18.568;2023-03-19T13:38:48;97245.97;;;18.99;31.84
31346;BME280;21711;49.708;18.568;2023-03-19T13:43:59;97250.09;;;19.64;31.01
31346;BME280;21711;49.708;18.568;2023-03-19T13:46:44;97241.06;;;19.69;31.01
31346;BME280;21711;49.708;18.568;2023-03-19T13:51:48;97236.84;;;19.68;28.69
31346;BME280;21711;49.708;18.568;2023-03-19T13:54:17;97242.78;;;19.06;30.98
31346;BME280;21711;49.708;18.568;2023-03-19T13:59:31;97228.22;;;19.62;29.76
31346;BME280;21711;49.708;18.568;2023-03-19T14:02:00;97230.00;;;19.58;29.37
31346;BME280;21711;49.708;18.568;2023-03-19T14:04:31;97224.47;;;19.42;29.73
31346;BME280;21711;49.708;18.568;2023-03-19T14:07:18;97219.00;;;19.51;30.28
31346;BME280;21711;49.708;18.568;2023-03-19T14:09:48;97212.91;;;19.63;29.79
31346;BME280;21711;49.708;18.568;2023-03-19T14:12:35;97209.09;;;19.76;29.50
31346;BME280;21711;49.708;18.568;2023-03-19T14:20:23;97218.47;;;19.11;29.09
31346;BME280;21711;49.708;18.568;2023-03-19T14:26:03;97212.00;;;19.12;28.66
31346;BME280;21711;49.708;18.568;2023-03-19T14:31:03;97224.44;;;18.53;31.40
31346;BME280;21711;49.708;18.568;2023-03-19T14:36:28;97215.22;;;18.42;31.27
31346;BME280;21711;49.708;18.568;2023-03-19T14:39:02;97218.25;;;18.31;30.61
31346;BME280;21711;49.708;18.568;2023-03-19T14:41:38;97217.19;;;18.53;31.17
31346;BME280;21711;49.708;18.568;2023-03-19T14:50:02;97215.13;;;18.29;30.31
31346;BME280;21711;49.708;18.568;2023-03-19T14:52:45;97216.03;;;18.12;30.56
31346;BME280;21711;49.708;18.568;2023-03-19T14:55:15;97210.69;;;18.03;30.18
31346;BME280;21711;49.708;18.568;2023-03-19T14:57:43;97204.44;;;17.99;30.52
31346;BME280;21711;49.708;18.568;2023-03-19T15:00:15;97211.91;;;18.14;31.70